createdAt,value
2023-05-23T00:01:58.795Z,22.92
2023-05-23T00:04:28.376Z,19.30
2023-05-23T00:06:55.893Z,21.10
2023-05-23T00:09:23.014Z,23.92
2023-05-23T00:11:50.285Z,19.33
2023-05-23T00:14:21.795Z,18.10
2023-05-23T00:16:49.755Z,21.05
2023-05-23T00:19:17.980Z,18.23
2023-05-23T00:21:48.779Z,18.55
2023-05-23T00:24:18.684Z,19.77
2023-05-23T00:26:48.816Z,24.85
2023-05-23T00:29:16.921Z,22.80
2023-05-23T00:31:47.707Z,22.23
2023-05-23T00:34:17.903Z,23.02
2023-05-23T00:36:50.220Z,23.60
2023-05-23T00:39:19.909Z,24.15
2023-05-23T00:41:52.188Z,24.83
2023-05-23T00:44:20.846Z,25.42
2023-05-23T00:46:55.758Z,21.00
2023-05-23T00:49:23.210Z,20.88
2023-05-23T00:51:52.230Z,21.35
2023-05-23T00:54:24.521Z,21.77
2023-05-23T00:56:51.766Z,20.42
2023-05-23T00:59:22.778Z,20.70
2023-05-23T01:01:54.702Z,20.63
2023-05-23T01:04:26.590Z,19.95
2023-05-23T01:06:57.734Z,21.15
2023-05-23T01:09:27.338Z,18.63
2023-05-23T01:12:25.438Z,18.23
2023-05-23T01:15:08.807Z,17.02
2023-05-23T01:17:50.837Z,16.88
2023-05-23T01:21:03.178Z,15.38
2023-05-23T01:24:07.407Z,14.63
2023-05-23T01:26:35.164Z,14.15
2023-05-23T01:29:11.275Z,14.13
2023-05-23T01:31:45.736Z,15.32
2023-05-23T01:34:17.159Z,14.20
2023-05-23T01:36:50.588Z,14.35
2023-05-23T01:39:17.525Z,15.20
2023-05-23T01:41:44.981Z,16.60
2023-05-23T01:44:12.330Z,16.27
2023-05-23T01:49:09.522Z,14.93
2023-05-23T01:51:36.839Z,15.45
2023-05-23T01:56:33.942Z,13.85
2023-05-23T01:59:04.744Z,14.45
2023-05-23T02:01:33.563Z,14.15
2023-05-23T02:04:00.784Z,14.60
2023-05-23T02:06:32.270Z,14.68
2023-05-23T02:08:59.291Z,15.98
2023-05-23T02:11:26.971Z,14.73
2023-05-23T02:13:56.774Z,16.40
2023-05-23T02:16:33.288Z,15.93
2023-05-23T02:19:00.380Z,16.55
2023-05-23T02:21:27.347Z,16.42
2023-05-23T02:23:54.243Z,15.85
2023-05-23T02:26:23.609Z,15.85
2023-05-23T02:28:51.075Z,16.30
2023-05-23T02:31:18.397Z,14.88
2023-05-23T02:33:47.577Z,14.80
2023-05-23T02:41:11.600Z,15.30
2023-05-23T02:43:39.448Z,15.45
2023-05-23T02:46:09.071Z,15.25
2023-05-23T02:48:36.016Z,16.05
2023-05-23T02:51:03.007Z,15.52
2023-05-23T02:53:32.326Z,15.63
2023-05-23T02:56:02.055Z,15.68
2023-05-23T02:58:29.946Z,15.30
2023-05-23T03:00:58.434Z,15.18
2023-05-23T03:03:25.786Z,14.98
2023-05-23T03:05:55.385Z,14.55
2023-05-23T03:08:22.353Z,16.10
2023-05-23T03:10:51.468Z,15.55
2023-05-23T03:13:18.982Z,15.63
2023-05-23T03:15:46.520Z,15.95
2023-05-23T03:18:13.937Z,15.73
2023-05-23T03:20:43.050Z,15.93
2023-05-23T03:23:12.100Z,16.02
2023-05-23T03:25:42.224Z,16.50
2023-05-23T03:28:15.184Z,15.60
2023-05-23T03:30:42.154Z,16.70
2023-05-23T03:33:12.259Z,15.73
2023-05-23T03:35:39.449Z,14.70
2023-05-23T03:38:09.178Z,15.07
2023-05-23T03:40:36.115Z,16.10
2023-05-23T03:43:07.280Z,14.82
2023-05-23T03:45:38.227Z,15.60
2023-05-23T03:48:12.504Z,15.52
2023-05-23T03:50:40.924Z,16.25
2023-05-23T03:55:41.955Z,16.13
2023-05-23T03:58:12.007Z,15.65
2023-05-23T04:00:41.026Z,15.20
2023-05-23T04:03:15.669Z,15.65
2023-05-23T04:05:45.190Z,15.13
2023-05-23T04:08:13.108Z,15.55
2023-05-23T04:10:42.534Z,15.50
2023-05-23T04:13:11.040Z,14.32
2023-05-23T04:15:38.160Z,15.27
2023-05-23T04:18:12.218Z,14.73
2023-05-23T04:20:41.915Z,15.73
2023-05-23T04:23:08.823Z,16.25
2023-05-23T04:25:39.817Z,16.08
2023-05-23T04:28:21.879Z,15.90
2023-05-23T04:30:49.522Z,15.55
2023-05-23T04:33:19.836Z,15.70
2023-05-23T04:35:49.451Z,14.75
2023-05-23T04:38:17.275Z,17.23
2023-05-23T04:40:44.837Z,16.90
2023-05-23T04:43:33.734Z,16.90
2023-05-23T04:46:15.676Z,16.98
2023-05-23T04:48:46.627Z,15.90
2023-05-23T04:51:14.093Z,15.35
2023-05-23T04:53:54.412Z,16.63
2023-05-23T04:56:28.271Z,15.68
2023-05-23T04:58:56.146Z,16.75
2023-05-23T05:01:28.101Z,17.42
2023-05-23T05:03:57.520Z,16.20
2023-05-23T05:06:29.038Z,15.90
2023-05-23T05:08:55.984Z,16.83
2023-05-23T05:11:27.454Z,16.15
2023-05-23T05:13:55.161Z,16.00
2023-05-23T05:16:22.574Z,16.10
2023-05-23T05:18:53.020Z,16.65
2023-05-23T05:21:21.187Z,16.50
2023-05-23T05:23:52.676Z,16.65
2023-05-23T05:26:21.972Z,17.20
2023-05-23T05:28:50.733Z,22.65
2023-05-23T05:31:20.817Z,18.00
2023-05-23T05:33:50.511Z,18.55
2023-05-23T05:36:17.434Z,18.60
2023-05-23T05:38:45.842Z,20.83
2023-05-23T05:41:13.418Z,21.77
2023-05-23T05:43:46.565Z,23.58
2023-05-23T05:46:16.794Z,27.08
2023-05-23T05:48:46.107Z,24.65
2023-05-23T05:51:17.664Z,25.75
2023-05-23T05:53:44.957Z,29.75
2023-05-23T05:56:12.160Z,28.98
2023-05-23T05:58:39.536Z,28.42
2023-05-23T06:01:08.450Z,32.63
2023-05-23T06:03:35.831Z,33.63
2023-05-23T06:06:02.941Z,40.70
2023-05-23T06:08:30.353Z,41.42
2023-05-23T06:13:26.159Z,46.67
2023-05-23T06:15:54.475Z,47.42
2023-05-23T06:18:22.470Z,49.17
2023-05-23T06:20:53.283Z,46.22
2023-05-23T06:23:21.770Z,48.50
2023-05-23T06:30:43.277Z,47.00
2023-05-23T06:33:11.913Z,44.72
2023-05-23T06:35:38.922Z,44.83
2023-05-23T06:38:06.019Z,42.10
2023-05-23T06:40:35.425Z,42.38
2023-05-23T06:45:49.549Z,40.40
2023-05-23T06:48:21.329Z,39.40
2023-05-23T06:50:49.646Z,40.53
2023-05-23T06:53:19.801Z,41.25
2023-05-23T06:55:48.755Z,39.05
2023-05-23T06:58:18.961Z,41.47
2023-05-23T07:00:51.383Z,40.70
2023-05-23T07:03:27.617Z,40.08
2023-05-23T07:05:59.431Z,40.67
2023-05-23T07:08:26.775Z,40.50
2023-05-23T07:11:01.288Z,39.97
2023-05-23T07:13:37.234Z,39.70
2023-05-23T07:16:06.802Z,40.55
2023-05-23T07:18:39.412Z,39.92
2023-05-23T07:21:09.176Z,40.60
2023-05-23T07:23:37.120Z,38.05
2023-05-23T07:26:04.962Z,37.83
2023-05-23T07:28:45.601Z,37.25
2023-05-23T07:31:13.612Z,36.85
2023-05-23T07:33:44.072Z,36.70
2023-05-23T07:36:16.571Z,35.88
2023-05-23T07:38:43.697Z,37.50
2023-05-23T07:41:13.053Z,37.67
2023-05-23T07:43:41.060Z,36.33
2023-05-23T07:46:11.095Z,35.35
2023-05-23T07:48:38.706Z,34.22
2023-05-23T07:51:06.031Z,34.95
2023-05-23T07:53:33.498Z,35.25
2023-05-23T07:56:03.554Z,35.00
2023-05-23T07:58:37.886Z,34.55
2023-05-23T08:01:05.523Z,33.55
2023-05-23T08:04:02.491Z,36.40
2023-05-23T08:06:35.635Z,35.72
2023-05-23T08:09:07.144Z,36.50
2023-05-23T08:11:38.726Z,34.00
2023-05-23T08:14:07.181Z,34.10
2023-05-23T08:16:39.383Z,34.67
2023-05-23T08:19:11.720Z,31.83
2023-05-23T08:21:38.977Z,32.22
2023-05-23T08:24:06.174Z,30.85
2023-05-23T08:26:38.633Z,32.30
2023-05-23T08:29:10.634Z,31.25
2023-05-23T08:31:40.086Z,31.25
2023-05-23T08:34:07.964Z,29.88
2023-05-23T08:36:37.075Z,31.25
2023-05-23T08:39:06.930Z,30.45
2023-05-23T08:41:39.263Z,28.98
2023-05-23T08:44:10.815Z,26.30
2023-05-23T08:46:49.945Z,24.77
2023-05-23T08:49:34.629Z,24.92
2023-05-23T08:52:03.788Z,24.98
2023-05-23T08:54:34.030Z,25.85
2023-05-23T08:57:03.684Z,24.15
2023-05-23T08:59:38.333Z,26.10
2023-05-23T09:02:11.973Z,24.75
2023-05-23T09:04:43.453Z,22.77
2023-05-23T09:07:25.339Z,22.00
2023-05-23T09:09:55.825Z,22.55
2023-05-23T09:12:24.931Z,21.13
2023-05-23T09:14:54.199Z,21.92
2023-05-23T09:17:24.050Z,20.27
2023-05-23T09:19:52.885Z,20.42
2023-05-23T09:22:50.722Z,20.08
2023-05-23T09:25:19.106Z,19.48
2023-05-23T09:27:52.021Z,18.13
2023-05-23T09:30:19.255Z,18.55
2023-05-23T09:32:59.762Z,17.45
2023-05-23T09:35:29.073Z,16.15
2023-05-23T09:40:35.066Z,16.35
2023-05-23T09:43:05.363Z,15.43
2023-05-23T09:45:34.004Z,15.38
2023-05-23T09:48:03.995Z,15.15
2023-05-23T09:50:33.811Z,15.55
2023-05-23T09:53:06.061Z,14.40
2023-05-23T09:55:33.280Z,14.85
2023-05-23T10:00:28.826Z,14.68
2023-05-23T10:03:08.463Z,15.52
2023-05-23T10:05:45.738Z,14.40
2023-05-23T10:08:48.227Z,15.43
2023-05-23T10:11:16.504Z,15.20
2023-05-23T10:13:49.614Z,15.02
2023-05-23T10:16:24.696Z,16.40
2023-05-23T10:18:59.340Z,15.23
2023-05-23T10:21:46.194Z,14.25
2023-05-23T10:24:17.944Z,13.82
2023-05-23T10:26:48.446Z,14.48
2023-05-23T10:29:15.372Z,14.48
2023-05-23T10:31:42.837Z,14.20
2023-05-23T10:34:24.953Z,13.52
2023-05-23T10:37:01.750Z,14.23
2023-05-23T10:39:35.052Z,13.10
2023-05-23T10:42:15.782Z,13.55
2023-05-23T10:44:42.912Z,13.15
2023-05-23T10:47:13.186Z,12.50
2023-05-23T10:49:48.359Z,13.95
2023-05-23T10:52:17.586Z,12.90
2023-05-23T10:54:46.961Z,12.77
2023-05-23T10:57:19.164Z,12.95
2023-05-23T10:59:47.169Z,12.55
2023-05-23T11:02:17.138Z,13.43
2023-05-23T11:04:44.994Z,12.25
2023-05-23T11:07:30.581Z,12.43
2023-05-23T11:10:11.363Z,11.95
2023-05-23T11:12:42.883Z,11.05
2023-05-23T11:15:18.848Z,11.52
2023-05-23T11:17:54.218Z,11.52
2023-05-23T11:20:31.185Z,10.70
2023-05-23T11:25:42.488Z,11.18
2023-05-23T11:28:11.814Z,10.32
2023-05-23T11:30:39.592Z,10.40
2023-05-23T11:33:09.729Z,9.93
2023-05-23T11:35:37.494Z,10.48
2023-05-23T11:38:07.340Z,9.95
2023-05-23T11:40:37.683Z,9.70
2023-05-23T11:43:11.579Z,10.48
2023-05-23T11:45:41.854Z,10.52
2023-05-23T11:48:13.060Z,9.35
2023-05-23T11:50:50.869Z,8.55
2023-05-23T11:53:21.068Z,9.75
2023-05-23T11:56:02.242Z,8.63
2023-05-23T11:58:37.298Z,9.07
2023-05-23T12:01:08.780Z,9.00
2023-05-23T12:03:48.178Z,9.25
2023-05-23T12:06:16.516Z,8.40
2023-05-23T12:08:48.611Z,9.27
2023-05-23T12:11:15.730Z,8.75
2023-05-23T12:16:11.220Z,9.35
2023-05-23T12:18:38.516Z,8.27
2023-05-23T12:21:08.373Z,8.57
2023-05-23T12:23:36.205Z,9.13
2023-05-23T12:26:10.373Z,8.48
2023-05-23T12:28:47.732Z,8.68
2023-05-23T12:31:18.898Z,8.60
2023-05-23T12:33:48.234Z,8.45
2023-05-23T12:36:25.369Z,7.72
2023-05-23T12:38:52.596Z,8.35
2023-05-23T12:43:57.176Z,8.80
2023-05-23T12:48:57.833Z,7.28
2023-05-23T12:51:24.817Z,8.27
2023-05-23T12:53:52.167Z,7.82
2023-05-23T12:56:21.076Z,7.40
2023-05-23T12:58:50.649Z,6.88
2023-05-23T13:01:21.916Z,6.18
2023-05-23T13:03:49.065Z,6.15
2023-05-23T13:08:44.125Z,6.13
2023-05-23T13:11:11.536Z,6.00
2023-05-23T13:13:38.647Z,5.50
2023-05-23T13:18:35.898Z,5.50
2023-05-23T13:21:02.966Z,5.00
2023-05-23T13:23:32.576Z,4.50
2023-05-23T13:26:00.049Z,4.85
2023-05-23T13:28:29.418Z,4.72
2023-05-23T13:30:59.441Z,4.60
2023-05-23T13:33:27.594Z,5.00
2023-05-23T13:35:54.716Z,4.68
2023-05-23T13:40:56.432Z,4.85
2023-05-23T13:43:25.754Z,4.90
2023-05-23T13:45:53.131Z,4.70
2023-05-23T13:48:20.385Z,4.72
2023-05-23T13:53:16.927Z,4.30
2023-05-23T13:55:47.368Z,4.88
2023-05-23T13:58:16.912Z,3.97
2023-05-23T14:00:49.218Z,4.68
2023-05-23T14:03:16.298Z,3.60
2023-05-23T14:05:48.319Z,3.67
2023-05-23T14:08:17.899Z,3.75
2023-05-23T14:10:45.173Z,4.40
2023-05-23T14:13:12.875Z,4.10
2023-05-23T14:15:42.895Z,4.10
2023-05-23T14:18:10.296Z,3.95
2023-05-23T14:20:37.286Z,4.32
2023-05-23T14:23:04.304Z,4.68
2023-05-23T14:25:31.313Z,3.88
2023-05-23T14:28:00.608Z,4.13
2023-05-23T14:30:27.828Z,3.90
2023-05-23T14:35:26.920Z,4.30
2023-05-23T14:37:53.870Z,5.07
2023-05-23T14:40:20.909Z,3.80
2023-05-23T14:42:47.945Z,3.50
2023-05-23T14:45:19.435Z,3.80
2023-05-23T14:47:47.220Z,3.72
2023-05-23T14:50:14.344Z,3.47
2023-05-23T14:55:09.076Z,3.63
2023-05-23T14:57:38.376Z,3.60
2023-05-23T15:00:10.207Z,3.50
2023-05-23T15:02:39.743Z,3.50
2023-05-23T15:05:07.804Z,3.70
2023-05-23T15:07:41.127Z,3.90
2023-05-23T15:10:09.022Z,3.65
2023-05-23T15:12:36.533Z,3.30
2023-05-23T15:15:04.119Z,3.03
2023-05-23T15:17:43.557Z,3.30
2023-05-23T15:20:11.766Z,3.47
2023-05-23T15:22:44.756Z,3.45
2023-05-23T15:25:12.097Z,3.03
2023-05-23T15:30:29.704Z,3.30
2023-05-23T15:33:00.684Z,3.50
2023-05-23T15:35:32.085Z,3.38
2023-05-23T15:37:59.543Z,3.30
2023-05-23T15:40:26.824Z,4.00
2023-05-23T15:42:53.977Z,3.90
2023-05-23T15:47:48.664Z,3.70
2023-05-23T15:50:17.607Z,3.55
2023-05-23T15:52:44.953Z,3.25
2023-05-23T15:57:39.416Z,3.63
2023-05-23T16:00:07.459Z,3.30
2023-05-23T16:02:39.138Z,3.72
2023-05-23T16:05:06.974Z,3.42
2023-05-23T16:07:36.694Z,3.60
2023-05-23T16:10:03.790Z,3.42
2023-05-23T16:12:31.390Z,4.03
2023-05-23T16:14:58.711Z,3.58
2023-05-23T16:17:25.781Z,3.58
2023-05-23T16:19:56.870Z,3.53
2023-05-23T16:22:24.028Z,3.65
2023-05-23T16:24:55.418Z,3.78
2023-05-23T16:27:23.881Z,3.08
2023-05-23T16:29:53.070Z,3.30
2023-05-23T16:32:20.164Z,3.25
2023-05-23T16:34:53.502Z,3.40
2023-05-23T16:37:23.935Z,3.63
2023-05-23T16:39:50.943Z,3.67
2023-05-23T16:42:17.944Z,3.53
2023-05-23T16:44:45.602Z,3.63
2023-05-23T16:47:12.713Z,4.20
2023-05-23T16:52:11.381Z,4.13
2023-05-23T16:54:38.526Z,3.95
2023-05-23T16:59:40.361Z,3.92
2023-05-23T17:02:11.497Z,4.35
2023-05-23T17:04:38.402Z,4.28
2023-05-23T17:07:09.614Z,4.50
2023-05-23T17:09:37.038Z,4.50
2023-05-23T17:12:04.319Z,4.03
2023-05-23T17:17:08.037Z,4.18
2023-05-23T17:19:37.953Z,4.25
2023-05-23T17:22:07.618Z,4.68
2023-05-23T17:24:37.289Z,4.78
2023-05-23T17:27:10.049Z,4.85
2023-05-23T17:29:39.496Z,5.22
2023-05-23T17:32:06.862Z,5.40
2023-05-23T17:34:36.107Z,5.05
2023-05-23T17:37:08.350Z,5.68
2023-05-23T17:39:35.287Z,5.78
2023-05-23T17:42:02.278Z,6.57
2023-05-23T17:44:29.465Z,5.70
2023-05-23T17:46:56.516Z,6.07
2023-05-23T17:49:23.722Z,6.25
2023-05-23T17:51:50.838Z,6.97
2023-05-23T17:54:19.837Z,7.03
2023-05-23T17:56:49.001Z,7.70
2023-05-23T17:59:21.425Z,7.05
2023-05-23T18:01:50.992Z,6.97
2023-05-23T18:04:18.472Z,7.80
2023-05-23T18:06:45.845Z,7.10
2023-05-23T18:11:44.356Z,7.63
2023-05-23T18:14:13.791Z,7.88
2023-05-23T18:16:41.496Z,7.47
2023-05-23T18:19:08.592Z,7.90
2023-05-23T18:21:35.824Z,7.53
2023-05-23T18:26:31.670Z,7.57
2023-05-23T18:29:02.960Z,7.30
2023-05-23T18:31:31.518Z,7.13
2023-05-23T18:33:59.054Z,7.18
2023-05-23T18:36:27.205Z,7.53
2023-05-23T18:38:54.353Z,7.20
2023-05-23T18:41:24.145Z,7.00
2023-05-23T18:43:51.325Z,6.70
2023-05-23T18:46:18.288Z,6.63
2023-05-23T18:48:47.677Z,6.85
2023-05-23T18:51:15.164Z,6.30
2023-05-23T18:53:45.218Z,6.60
2023-05-23T18:56:19.898Z,5.97
2023-05-23T18:58:50.174Z,5.60
2023-05-23T19:01:19.894Z,5.80
2023-05-23T19:03:47.162Z,6.05
2023-05-23T19:11:11.946Z,6.78
2023-05-23T19:13:39.055Z,6.55
2023-05-23T19:16:06.042Z,6.50
2023-05-23T19:18:33.041Z,6.35
2023-05-23T19:21:00.190Z,6.28
2023-05-23T19:23:29.386Z,6.13
2023-05-23T19:25:58.876Z,6.70
2023-05-23T19:28:26.154Z,7.55
2023-05-23T19:33:23.649Z,7.85
2023-05-23T19:35:51.588Z,6.97
2023-05-23T19:38:21.809Z,7.10
2023-05-23T19:40:48.899Z,7.68
2023-05-23T19:43:15.924Z,8.05
2023-05-23T19:45:47.676Z,7.55
2023-05-23T19:48:17.293Z,8.15
2023-05-23T19:50:44.635Z,7.63
2023-05-23T19:53:14.380Z,7.65
2023-05-23T19:55:42.763Z,9.48
2023-05-23T19:58:12.075Z,9.18
2023-05-23T20:00:41.310Z,9.20
2023-05-23T20:03:13.644Z,9.02
2023-05-23T20:05:40.873Z,9.00
2023-05-23T20:08:08.270Z,8.85
2023-05-23T20:10:37.525Z,9.00
2023-05-23T20:13:04.544Z,9.00
2023-05-23T20:18:06.586Z,9.65
2023-05-23T20:20:34.033Z,9.52
2023-05-23T20:23:01.069Z,8.98
2023-05-23T20:25:28.923Z,9.40
2023-05-23T20:27:58.200Z,8.77
2023-05-23T20:30:25.419Z,9.27
2023-05-23T20:35:24.608Z,9.02
2023-05-23T20:37:51.942Z,9.50
2023-05-23T20:40:22.308Z,9.90
2023-05-23T20:42:50.004Z,10.10
2023-05-23T20:45:20.376Z,9.68
2023-05-23T20:47:50.121Z,10.45
2023-05-23T20:52:48.755Z,9.57
2023-05-23T20:57:43.745Z,10.00
2023-05-23T21:00:12.623Z,10.13
2023-05-23T21:02:40.728Z,10.00
2023-05-23T21:05:08.883Z,9.95
2023-05-23T21:07:36.698Z,8.98
2023-05-23T21:10:04.688Z,9.68
2023-05-23T21:12:31.878Z,9.13
2023-05-23T21:14:58.916Z,9.68
2023-05-23T21:17:26.226Z,9.65
2023-05-23T21:19:53.434Z,9.27
2023-05-23T21:22:20.593Z,9.25
2023-05-23T21:24:47.695Z,9.38
2023-05-23T21:27:14.860Z,9.10
2023-05-23T21:29:43.089Z,8.80
2023-05-23T21:32:10.130Z,9.48
2023-05-23T21:34:40.365Z,8.13
2023-05-23T21:37:07.918Z,8.50
2023-05-23T21:39:51.383Z,8.25
2023-05-23T21:42:20.278Z,9.02
2023-05-23T21:44:47.326Z,8.93
2023-05-23T21:47:16.638Z,7.90
2023-05-23T21:49:44.020Z,7.68
2023-05-23T21:52:13.429Z,7.45
2023-05-23T21:54:40.480Z,7.75
2023-05-23T21:57:07.570Z,6.55
2023-05-23T21:59:34.715Z,6.93
2023-05-23T22:02:01.805Z,6.40
2023-05-23T22:04:28.895Z,6.25
2023-05-23T22:06:58.603Z,6.00
2023-05-23T22:09:26.599Z,5.90
2023-05-23T22:11:56.900Z,5.22
2023-05-23T22:14:23.960Z,5.05
2023-05-23T22:16:54.863Z,4.90
2023-05-23T22:19:26.168Z,4.47
2023-05-23T22:21:53.377Z,4.78
2023-05-23T22:24:20.389Z,4.82
2023-05-23T22:26:47.406Z,4.40
2023-05-23T22:29:14.794Z,4.63
2023-05-23T22:31:42.513Z,4.72
2023-05-23T22:34:14.579Z,4.45
2023-05-23T22:36:41.676Z,4.35
2023-05-23T22:39:11.405Z,4.55
2023-05-23T22:41:38.487Z,4.53
2023-05-23T22:44:05.793Z,4.03
2023-05-23T22:46:32.918Z,4.38
2023-05-23T22:49:00.543Z,3.50
2023-05-23T22:51:31.157Z,4.07
2023-05-23T22:54:00.667Z,4.00
2023-05-23T22:56:27.784Z,4.20
2023-05-23T22:58:57.009Z,4.10
2023-05-23T23:01:26.332Z,4.00
2023-05-23T23:03:53.561Z,4.20
2023-05-23T23:06:22.763Z,3.63
2023-05-23T23:08:52.756Z,4.03
2023-05-23T23:11:19.859Z,4.40
2023-05-23T23:13:47.139Z,4.15
2023-05-23T23:18:43.242Z,4.20
2023-05-23T23:21:13.955Z,4.40
2023-05-23T23:23:42.447Z,3.88
2023-05-23T23:26:09.598Z,4.13
2023-05-23T23:28:36.881Z,4.20
2023-05-23T23:35:58.348Z,4.05
2023-05-23T23:38:25.426Z,4.32
2023-05-23T23:40:54.573Z,4.43
2023-05-23T23:43:25.072Z,4.40
2023-05-23T23:45:52.875Z,4.28
2023-05-23T23:48:19.894Z,4.10
2023-05-23T23:50:46.866Z,4.07
2023-05-23T23:53:17.013Z,4.03
2023-05-23T23:55:44.349Z,3.80
